Salina, UT (84654)

17:27 MDT le 29 août 2016 (GMT -0600)
Salina--West Fields | | Change Station

Alt. 5187 ft 38.96 °N, 111.90 °W | Updated 25 seconds ago

Clear
Ciel dégagé
88.5 ° F
Paraît 85 ° F
N
0.0
Vent Variable Vent de Nord
Gusts 0.0 mph

Aujourd'hui
Haut(e) -- | Bas -- ° F
--% Risque de précip.
Hier
Haut(e) -- | Bas -- ° F
Precip. -- pouce
Pression 29.94 pouce
Visibilité 10.0 Miles terrestres
Nuages Ciel dégagé
indice de chaleur 85 ° F
Point de rosée 35 ° F
Humidité 15%
Précipitations 0.00 pouce
Profondeur de la couche neigeuse Non disponible.
6:54 AM 8:01 PM
Lune descendante, 6% visible
METAR KPUC 292253Z AUTO 08007KT 10SM CLR 32/M04 A3021 RMK AO2 SLP138 T03221039
Pression 29.94 pouce
Visibilité 10.0 Miles terrestres
Nuages Ciel dégagé
indice de chaleur 85 ° F
Point de rosée 35 ° F
Humidité 15%
Précipitations 0.00 pouce
Profondeur de la couche neigeuse Non disponible.
6:54 AM 8:01 PM
Lune descendante, 6% visible
METAR KPUC 292253Z AUTO 08007KT 10SM CLR 32/M04 A3021 RMK AO2 SLP138 T03221039

10-Day Weather Forecast

Almanac

Astronomie

Aug. 29, 2016 Lever Coucher
Temps réel
Crépuscule civil
Crépuscule nautique
Crépuscule astronomique
Lune
Durée de lumière visible
Longueur du jour
Tomorrow will be .
, % of the Moon is Illuminated

Extrêmes aujourd'hui

State Highs State Lows

Community

WunderPhotos

Upload Photos

1,935,695 Photos téléchargées !

WunderBlog® & News

Nearby

Qualité de l'air

  Qualité de l'air Indice de la qualité de l'air Polluant
Not available.

Épaisseur de neige

Station Depth Altitude

Activité sismique

Ville Distance Mag. Time & Date
Minimum magnitude displayed is 2.5.

Températures des eaux côtières

Lieu Température

Stations

Stations météo à proximité

Emplacement de la station Température Refroidissement éolien Point de rosée Humidité Vent Precip. Alt. Mise à jour Type
                   

Watches & Warnings

There are currently no watches in effect.